sensor_id;sensor_type;location;lat;lon;timestamp;temperature;humidity
53711;DHT22;39605;52.704;6.752;2023-05-03T00:02:19;4.20;99.90
53711;DHT22;39605;52.704;6.752;2023-05-03T00:04:47;4.20;99.90
53711;DHT22;39605;52.704;6.752;2023-05-03T00:07:13;4.20;99.90
53711;DHT22;39605;52.704;6.752;2023-05-03T00:09:39;4.20;99.90
53711;DHT22;39605;52.704;6.752;2023-05-03T00:12:05;4.20;99.90
53711;DHT22;39605;52.704;6.752;2023-05-03T00:14:31;4.10;99.90
53711;DHT22;39605;52.704;6.752;2023-05-03T00:16:59;4.40;99.90
53711;DHT22;39605;52.704;6.752;2023-05-03T00:19:28;4.00;99.90
53711;DHT22;39605;52.704;6.752;2023-05-03T00:21:58;4.00;99.90
53711;DHT22;39605;52.704;6.752;2023-05-03T00:24:31;4.20;99.90
53711;DHT22;39605;52.704;6.752;2023-05-03T00:26:57;4.00;99.90
53711;DHT22;39605;52.704;6.752;2023-05-03T00:29:23;3.90;99.90
53711;DHT22;39605;52.704;6.752;2023-05-03T00:31:51;3.80;99.90
53711;DHT22;39605;52.704;6.752;2023-05-03T00:34:19;4.20;99.90
53711;DHT22;39605;52.704;6.752;2023-05-03T00:36:45;3.80;99.90
53711;DHT22;39605;52.704;6.752;2023-05-03T00:39:11;3.80;99.90
53711;DHT22;39605;52.704;6.752;2023-05-03T00:41:46;3.80;99.90
53711;DHT22;39605;52.704;6.752;2023-05-03T00:44:12;3.70;99.90
53711;DHT22;39605;52.704;6.752;2023-05-03T00:46:38;3.80;99.90
53711;DHT22;39605;52.704;6.752;2023-05-03T00:49:06;3.80;99.90
53711;DHT22;39605;52.704;6.752;2023-05-03T00:51:32;3.70;99.90
53711;DHT22;39605;52.704;6.752;2023-05-03T00:53:58;3.70;99.90
53711;DHT22;39605;52.704;6.752;2023-05-03T00:56:25;3.60;99.90
53711;DHT22;39605;52.704;6.752;2023-05-03T00:58:54;3.60;99.90
53711;DHT22;39605;52.704;6.752;2023-05-03T01:01:22;3.60;99.90
53711;DHT22;39605;52.704;6.752;2023-05-03T01:03:50;3.50;99.90
53711;DHT22;39605;52.704;6.752;2023-05-03T01:20:36;3.40;99.90
53711;DHT22;39605;52.704;6.752;2023-05-03T01:23:13;3.50;99.90
53711;DHT22;39605;52.704;6.752;2023-05-03T01:25:39;3.50;99.90
53711;DHT22;39605;52.704;6.752;2023-05-03T01:28:05;3.40;99.90
53711;DHT22;39605;52.704;6.752;2023-05-03T01:30:33;3.40;99.90
53711;DHT22;39605;52.704;6.752;2023-05-03T01:33:12;3.40;99.90
53711;DHT22;39605;52.704;6.752;2023-05-03T01:36:15;3.40;99.90
53711;DHT22;39605;52.704;6.752;2023-05-03T01:38:55;3.40;99.90
53711;DHT22;39605;52.704;6.752;2023-05-03T01:41:23;3.40;99.90
53711;DHT22;39605;52.704;6.752;2023-05-03T01:43:54;3.50;99.90
53711;DHT22;39605;52.704;6.752;2023-05-03T01:46:21;3.60;99.90
53711;DHT22;39605;52.704;6.752;2023-05-03T01:48:46;3.30;99.90
53711;DHT22;39605;52.704;6.752;2023-05-03T01:51:12;3.20;99.90
53711;DHT22;39605;52.704;6.752;2023-05-03T01:53:38;3.50;99.90
53711;DHT22;39605;52.704;6.752;2023-05-03T01:56:06;3.20;99.90
53711;DHT22;39605;52.704;6.752;2023-05-03T01:58:35;3.20;99.90
53711;DHT22;39605;52.704;6.752;2023-05-03T02:01:03;3.10;99.90
53711;DHT22;39605;52.704;6.752;2023-05-03T02:03:30;3.10;99.90
53711;DHT22;39605;52.704;6.752;2023-05-03T02:05:55;3.10;99.90
53711;DHT22;39605;52.704;6.752;2023-05-03T02:08:21;3.00;99.90
53711;DHT22;39605;52.704;6.752;2023-05-03T02:10:47;3.50;99.90
53711;DHT22;39605;52.704;6.752;2023-05-03T02:13:13;3.00;99.90
53711;DHT22;39605;52.704;6.752;2023-05-03T02:15:39;3.60;99.90
53711;DHT22;39605;52.704;6.752;2023-05-03T02:18:07;3.00;99.90
53711;DHT22;39605;52.704;6.752;2023-05-03T02:20:34;3.00;99.90
53711;DHT22;39605;52.704;6.752;2023-05-03T02:23:03;3.20;99.90
53711;DHT22;39605;52.704;6.752;2023-05-03T02:25:31;3.50;99.90
53711;DHT22;39605;52.704;6.752;2023-05-03T02:27:59;3.80;99.90
53711;DHT22;39605;52.704;6.752;2023-05-03T02:30:25;3.00;99.90
53711;DHT22;39605;52.704;6.752;2023-05-03T02:32:51;3.30;99.90
53711;DHT22;39605;52.704;6.752;2023-05-03T02:35:19;2.90;99.90
53711;DHT22;39605;52.704;6.752;2023-05-03T02:37:45;3.00;99.90
53711;DHT22;39605;52.704;6.752;2023-05-03T02:40:11;3.40;99.90
53711;DHT22;39605;52.704;6.752;2023-05-03T02:42:39;2.80;99.90
53711;DHT22;39605;52.704;6.752;2023-05-03T02:45:05;3.10;99.90
53711;DHT22;39605;52.704;6.752;2023-05-03T02:47:31;2.90;99.90
53711;DHT22;39605;52.704;6.752;2023-05-03T02:49:56;3.50;99.90
53711;DHT22;39605;52.704;6.752;2023-05-03T02:52:22;3.10;99.90
53711;DHT22;39605;52.704;6.752;2023-05-03T02:54:48;3.00;99.90
53711;DHT22;39605;52.704;6.752;2023-05-03T02:57:18;3.00;99.90
53711;DHT22;39605;52.704;6.752;2023-05-03T02:59:47;2.80;99.90
53711;DHT22;39605;52.704;6.752;2023-05-03T03:02:13;3.40;99.90
53711;DHT22;39605;52.704;6.752;2023-05-03T03:04:39;3.20;99.90
53711;DHT22;39605;52.704;6.752;2023-05-03T03:07:07;3.00;99.90
53711;DHT22;39605;52.704;6.752;2023-05-03T03:09:33;3.10;99.90
53711;DHT22;39605;52.704;6.752;2023-05-03T03:12:01;3.80;99.90
53711;DHT22;39605;52.704;6.752;2023-05-03T03:14:29;3.10;99.90
53711;DHT22;39605;52.704;6.752;2023-05-03T03:16:57;2.70;99.90
53711;DHT22;39605;52.704;6.752;2023-05-03T03:19:26;2.70;99.90
53711;DHT22;39605;52.704;6.752;2023-05-03T03:21:51;2.70;99.90
53711;DHT22;39605;52.704;6.752;2023-05-03T03:24:17;3.40;99.90
53711;DHT22;39605;52.704;6.752;2023-05-03T03:26:46;3.00;99.90
53711;DHT22;39605;52.704;6.752;2023-05-03T03:29:11;2.60;99.90
53711;DHT22;39605;52.704;6.752;2023-05-03T03:31:37;3.10;99.90
53711;DHT22;39605;52.704;6.752;2023-05-03T03:34:03;2.90;99.90
53711;DHT22;39605;52.704;6.752;2023-05-03T03:36:31;2.60;99.90
53711;DHT22;39605;52.704;6.752;2023-05-03T03:38:59;2.50;99.90
53711;DHT22;39605;52.704;6.752;2023-05-03T03:41:27;2.90;99.90
53711;DHT22;39605;52.704;6.752;2023-05-03T03:43:53;2.60;99.90
53711;DHT22;39605;52.704;6.752;2023-05-03T03:46:18;2.60;99.90
53711;DHT22;39605;52.704;6.752;2023-05-03T03:48:44;2.50;99.90
53711;DHT22;39605;52.704;6.752;2023-05-03T03:51:10;2.90;99.90
53711;DHT22;39605;52.704;6.752;2023-05-03T03:53:40;2.60;99.90
53711;DHT22;39605;52.704;6.752;2023-05-03T03:56:08;2.60;99.90
53711;DHT22;39605;52.704;6.752;2023-05-03T03:58:34;2.50;99.90
53711;DHT22;39605;52.704;6.752;2023-05-03T04:01:00;3.00;99.90
53711;DHT22;39605;52.704;6.752;2023-05-03T04:03:26;3.00;99.90
53711;DHT22;39605;52.704;6.752;2023-05-03T04:05:52;2.40;99.90
53711;DHT22;39605;52.704;6.752;2023-05-03T04:08:21;2.40;99.90
53711;DHT22;39605;52.704;6.752;2023-05-03T04:10:46;2.60;99.90
53711;DHT22;39605;52.704;6.752;2023-05-03T04:13:12;2.50;99.90
53711;DHT22;39605;52.704;6.752;2023-05-03T04:15:38;2.40;99.90
53711;DHT22;39605;52.704;6.752;2023-05-03T04:18:04;2.40;99.90
53711;DHT22;39605;52.704;6.752;2023-05-03T04:20:36;2.50;99.90
53711;DHT22;39605;52.704;6.752;2023-05-03T04:23:04;2.70;99.90
53711;DHT22;39605;52.704;6.752;2023-05-03T04:25:29;3.20;99.90
53711;DHT22;39605;52.704;6.752;2023-05-03T04:27:57;2.50;99.90
53711;DHT22;39605;52.704;6.752;2023-05-03T04:30:23;2.60;99.90
53711;DHT22;39605;52.704;6.752;2023-05-03T04:32:50;2.50;99.90
53711;DHT22;39605;52.704;6.752;2023-05-03T04:35:18;2.50;99.90
53711;DHT22;39605;52.704;6.752;2023-05-03T04:37:45;2.50;99.90
53711;DHT22;39605;52.704;6.752;2023-05-03T04:40:11;2.50;99.90
53711;DHT22;39605;52.704;6.752;2023-05-03T04:42:37;2.40;99.90
53711;DHT22;39605;52.704;6.752;2023-05-03T04:45:04;3.00;99.90
53711;DHT22;39605;52.704;6.752;2023-05-03T04:47:34;2.50;99.90
53711;DHT22;39605;52.704;6.752;2023-05-03T04:50:02;2.90;99.90
53711;DHT22;39605;52.704;6.752;2023-05-03T04:52:30;2.60;99.90
53711;DHT22;39605;52.704;6.752;2023-05-03T04:54:56;2.80;99.90
53711;DHT22;39605;52.704;6.752;2023-05-03T04:57:22;2.80;99.90
53711;DHT22;39605;52.704;6.752;2023-05-03T04:59:48;2.70;99.90
53711;DHT22;39605;52.704;6.752;2023-05-03T05:02:14;2.80;99.90
53711;DHT22;39605;52.704;6.752;2023-05-03T05:04:40;3.00;99.90
53711;DHT22;39605;52.704;6.752;2023-05-03T05:07:06;3.00;99.90
53711;DHT22;39605;52.704;6.752;2023-05-03T05:09:32;3.00;99.90
53711;DHT22;39605;52.704;6.752;2023-05-03T05:11:58;3.10;99.90
53711;DHT22;39605;52.704;6.752;2023-05-03T05:14:25;3.60;99.90
53711;DHT22;39605;52.704;6.752;2023-05-03T05:16:54;3.20;99.90
53711;DHT22;39605;52.704;6.752;2023-05-03T05:19:21;3.30;99.90
53711;DHT22;39605;52.704;6.752;2023-05-03T05:21:46;3.80;99.90
53711;DHT22;39605;52.704;6.752;2023-05-03T05:24:12;3.50;99.90
53711;DHT22;39605;52.704;6.752;2023-05-03T05:26:38;3.90;99.90
53711;DHT22;39605;52.704;6.752;2023-05-03T05:29:06;3.70;99.90
53711;DHT22;39605;52.704;6.752;2023-05-03T05:31:31;4.00;99.90
53711;DHT22;39605;52.704;6.752;2023-05-03T05:34:00;4.00;99.90
53711;DHT22;39605;52.704;6.752;2023-05-03T05:36:25;4.40;99.90
53711;DHT22;39605;52.704;6.752;2023-05-03T05:38:51;4.20;99.90
53711;DHT22;39605;52.704;6.752;2023-05-03T05:41:17;4.60;99.90
53711;DHT22;39605;52.704;6.752;2023-05-03T05:43:43;4.60;99.90
53711;DHT22;39605;52.704;6.752;2023-05-03T05:46:10;4.50;99.90
53711;DHT22;39605;52.704;6.752;2023-05-03T05:48:36;4.70;99.90
53711;DHT22;39605;52.704;6.752;2023-05-03T05:51:02;4.70;99.90
53711;DHT22;39605;52.704;6.752;2023-05-03T05:53:27;4.80;99.90
53711;DHT22;39605;52.704;6.752;2023-05-03T05:55:53;4.90;99.90
53711;DHT22;39605;52.704;6.752;2023-05-03T05:58:22;5.00;99.90
53711;DHT22;39605;52.704;6.752;2023-05-03T06:00:47;5.10;99.90
53711;DHT22;39605;52.704;6.752;2023-05-03T06:03:14;5.20;99.90
53711;DHT22;39605;52.704;6.752;2023-05-03T06:05:40;5.50;99.90
53711;DHT22;39605;52.704;6.752;2023-05-03T06:08:06;5.50;99.90
53711;DHT22;39605;52.704;6.752;2023-05-03T06:10:33;5.60;99.90
53711;DHT22;39605;52.704;6.752;2023-05-03T06:13:01;5.70;99.90
53711;DHT22;39605;52.704;6.752;2023-05-03T06:15:28;5.90;99.90
53711;DHT22;39605;52.704;6.752;2023-05-03T06:17:53;5.90;99.90
53711;DHT22;39605;52.704;6.752;2023-05-03T06:20:20;6.10;99.90
53711;DHT22;39605;52.704;6.752;2023-05-03T06:22:45;6.40;99.90
53711;DHT22;39605;52.704;6.752;2023-05-03T06:25:11;6.30;99.90
53711;DHT22;39605;52.704;6.752;2023-05-03T06:27:40;6.50;99.90
53711;DHT22;39605;52.704;6.752;2023-05-03T06:30:09;6.60;99.90
53711;DHT22;39605;52.704;6.752;2023-05-03T06:32:36;6.90;99.90
53711;DHT22;39605;52.704;6.752;2023-05-03T06:35:02;7.00;99.90
53711;DHT22;39605;52.704;6.752;2023-05-03T06:37:28;7.10;99.90
53711;DHT22;39605;52.704;6.752;2023-05-03T06:39:54;7.30;99.90
53711;DHT22;39605;52.704;6.752;2023-05-03T06:42:20;7.40;99.90
53711;DHT22;39605;52.704;6.752;2023-05-03T06:44:46;7.50;99.90
53711;DHT22;39605;52.704;6.752;2023-05-03T06:47:15;7.40;99.90
53711;DHT22;39605;52.704;6.752;2023-05-03T06:49:41;7.50;99.90
53711;DHT22;39605;52.704;6.752;2023-05-03T06:52:07;7.50;99.90
53711;DHT22;39605;52.704;6.752;2023-05-03T06:54:32;7.60;99.90
53711;DHT22;39605;52.704;6.752;2023-05-03T06:57:00;7.70;99.90
53711;DHT22;39605;52.704;6.752;2023-05-03T06:59:29;7.90;99.90
53711;DHT22;39605;52.704;6.752;2023-05-03T07:01:57;8.20;99.90
53711;DHT22;39605;52.704;6.752;2023-05-03T07:04:23;8.50;99.90
53711;DHT22;39605;52.704;6.752;2023-05-03T07:06:49;8.90;99.90
53711;DHT22;39605;52.704;6.752;2023-05-03T07:09:15;8.80;99.90
53711;DHT22;39605;52.704;6.752;2023-05-03T07:11:44;8.90;99.90
53711;DHT22;39605;52.704;6.752;2023-05-03T07:14:15;8.90;99.90
53711;DHT22;39605;52.704;6.752;2023-05-03T07:16:43;8.90;99.90
53711;DHT22;39605;52.704;6.752;2023-05-03T07:19:09;9.10;99.90
53711;DHT22;39605;52.704;6.752;2023-05-03T07:21:35;9.50;99.90
53711;DHT22;39605;52.704;6.752;2023-05-03T07:24:00;9.80;99.90
53711;DHT22;39605;52.704;6.752;2023-05-03T07:26:26;9.90;99.90
53711;DHT22;39605;52.704;6.752;2023-05-03T07:28:52;9.90;99.90
53711;DHT22;39605;52.704;6.752;2023-05-03T07:31:20;9.90;99.90
53711;DHT22;39605;52.704;6.752;2023-05-03T07:33:48;10.00;99.90
53711;DHT22;39605;52.704;6.752;2023-05-03T07:36:14;10.00;99.90
53711;DHT22;39605;52.704;6.752;2023-05-03T07:38:40;10.00;99.90
53711;DHT22;39605;52.704;6.752;2023-05-03T07:41:05;10.30;99.90
53711;DHT22;39605;52.704;6.752;2023-05-03T07:43:34;10.40;99.90
53711;DHT22;39605;52.704;6.752;2023-05-03T07:46:00;10.60;99.90
53711;DHT22;39605;52.704;6.752;2023-05-03T07:48:26;10.80;99.90
53711;DHT22;39605;52.704;6.752;2023-05-03T07:50:51;10.90;99.90
53711;DHT22;39605;52.704;6.752;2023-05-03T07:53:17;10.80;99.90
53711;DHT22;39605;52.704;6.752;2023-05-03T07:55:45;10.90;99.90
53711;DHT22;39605;52.704;6.752;2023-05-03T07:58:17;10.80;99.90
53711;DHT22;39605;52.704;6.752;2023-05-03T08:00:42;10.70;99.90
53711;DHT22;39605;52.704;6.752;2023-05-03T08:03:08;10.60;99.90
53711;DHT22;39605;52.704;6.752;2023-05-03T08:05:36;10.70;99.90
53711;DHT22;39605;52.704;6.752;2023-05-03T08:08:02;10.60;99.90
53711;DHT22;39605;52.704;6.752;2023-05-03T08:10:30;10.50;99.90
53711;DHT22;39605;52.704;6.752;2023-05-03T08:12:56;10.50;99.90
53711;DHT22;39605;52.704;6.752;2023-05-03T08:15:22;10.40;99.90
53711;DHT22;39605;52.704;6.752;2023-05-03T08:17:48;10.40;99.90
53711;DHT22;39605;52.704;6.752;2023-05-03T08:20:13;10.50;99.90
53711;DHT22;39605;52.704;6.752;2023-05-03T08:22:40;10.70;99.90
53711;DHT22;39605;52.704;6.752;2023-05-03T08:25:09;11.20;99.90
53711;DHT22;39605;52.704;6.752;2023-05-03T08:27:36;11.30;99.90
53711;DHT22;39605;52.704;6.752;2023-05-03T08:30:04;11.40;99.90
53711;DHT22;39605;52.704;6.752;2023-05-03T08:32:35;11.20;99.20
53711;DHT22;39605;52.704;6.752;2023-05-03T08:35:00;11.20;99.90
53711;DHT22;39605;52.704;6.752;2023-05-03T08:37:41;11.30;99.90
53711;DHT22;39605;52.704;6.752;2023-05-03T08:40:11;11.40;99.90
53711;DHT22;39605;52.704;6.752;2023-05-03T08:42:44;11.30;99.90
53711;DHT22;39605;52.704;6.752;2023-05-03T08:45:12;11.40;99.90
53711;DHT22;39605;52.704;6.752;2023-05-03T08:47:40;11.60;99.90
53711;DHT22;39605;52.704;6.752;2023-05-03T08:50:09;12.10;99.80
53711;DHT22;39605;52.704;6.752;2023-05-03T08:52:41;12.30;99.40
53711;DHT22;39605;52.704;6.752;2023-05-03T08:55:08;12.40;98.40
53711;DHT22;39605;52.704;6.752;2023-05-03T08:57:35;12.60;97.40
53711;DHT22;39605;52.704;6.752;2023-05-03T09:00:01;13.10;99.70
53711;DHT22;39605;52.704;6.752;2023-05-03T09:02:30;13.60;98.30
53711;DHT22;39605;52.704;6.752;2023-05-03T09:04:59;13.80;95.50
53711;DHT22;39605;52.704;6.752;2023-05-03T09:07:25;14.20;97.80
53711;DHT22;39605;52.704;6.752;2023-05-03T09:09:51;14.40;94.60
53711;DHT22;39605;52.704;6.752;2023-05-03T09:12:36;14.50;93.50
53711;DHT22;39605;52.704;6.752;2023-05-03T09:15:02;14.40;92.30
53711;DHT22;39605;52.704;6.752;2023-05-03T09:17:33;14.40;92.20
53711;DHT22;39605;52.704;6.752;2023-05-03T09:19:59;14.40;90.20
53711;DHT22;39605;52.704;6.752;2023-05-03T09:22:30;14.40;89.20
53711;DHT22;39605;52.704;6.752;2023-05-03T09:24:58;14.60;91.30
53711;DHT22;39605;52.704;6.752;2023-05-03T09:27:25;14.40;90.40
53711;DHT22;39605;52.704;6.752;2023-05-03T09:29:52;14.40;92.50
53711;DHT22;39605;52.704;6.752;2023-05-03T09:32:19;14.40;88.70
53711;DHT22;39605;52.704;6.752;2023-05-03T09:34:46;14.00;88.20
53711;DHT22;39605;52.704;6.752;2023-05-03T09:37:14;13.90;91.00
53711;DHT22;39605;52.704;6.752;2023-05-03T09:39:45;13.80;90.00
53711;DHT22;39605;52.704;6.752;2023-05-03T09:42:15;13.90;90.60
53711;DHT22;39605;52.704;6.752;2023-05-03T09:44:49;13.90;91.60
53711;DHT22;39605;52.704;6.752;2023-05-03T09:47:19;14.10;89.80
53711;DHT22;39605;52.704;6.752;2023-05-03T09:49:46;14.00;89.30
53711;DHT22;39605;52.704;6.752;2023-05-03T09:52:12;13.70;89.40
53711;DHT22;39605;52.704;6.752;2023-05-03T09:54:38;14.00;88.60
53711;DHT22;39605;52.704;6.752;2023-05-03T09:57:06;13.80;89.00
53711;DHT22;39605;52.704;6.752;2023-05-03T09:59:33;13.70;87.60
53711;DHT22;39605;52.704;6.752;2023-05-03T10:02:02;14.00;92.00
53711;DHT22;39605;52.704;6.752;2023-05-03T10:04:42;14.30;89.00
53711;DHT22;39605;52.704;6.752;2023-05-03T10:07:11;14.90;91.20
53711;DHT22;39605;52.704;6.752;2023-05-03T10:09:38;14.90;89.20
53711;DHT22;39605;52.704;6.752;2023-05-03T10:12:07;14.50;84.80
53711;DHT22;39605;52.704;6.752;2023-05-03T10:14:34;14.20;86.40
53711;DHT22;39605;52.704;6.752;2023-05-03T10:17:05;13.80;87.80
53711;DHT22;39605;52.704;6.752;2023-05-03T10:19:33;13.60;89.10
53711;DHT22;39605;52.704;6.752;2023-05-03T10:22:05;13.50;87.00
53711;DHT22;39605;52.704;6.752;2023-05-03T10:24:35;13.60;86.10
53711;DHT22;39605;52.704;6.752;2023-05-03T10:27:01;14.00;88.20
53711;DHT22;39605;52.704;6.752;2023-05-03T10:32:00;14.30;87.30
53711;DHT22;39605;52.704;6.752;2023-05-03T10:34:30;14.00;85.10
53711;DHT22;39605;52.704;6.752;2023-05-03T10:37:00;14.00;88.80
53711;DHT22;39605;52.704;6.752;2023-05-03T10:39:27;14.10;87.70
53711;DHT22;39605;52.704;6.752;2023-05-03T10:42:04;14.20;85.30
53711;DHT22;39605;52.704;6.752;2023-05-03T10:44:52;14.60;88.80
53711;DHT22;39605;52.704;6.752;2023-05-03T10:47:20;15.00;87.10
53711;DHT22;39605;52.704;6.752;2023-05-03T10:55:19;15.30;83.20
53711;DHT22;39605;52.704;6.752;2023-05-03T10:57:46;15.60;88.20
53711;DHT22;39605;52.704;6.752;2023-05-03T11:05:41;16.10;84.30
53711;DHT22;39605;52.704;6.752;2023-05-03T11:08:15;15.90;80.90
53711;DHT22;39605;52.704;6.752;2023-05-03T11:10:43;15.90;81.30
53711;DHT22;39605;52.704;6.752;2023-05-03T11:13:10;15.60;80.90
53711;DHT22;39605;52.704;6.752;2023-05-03T11:15:37;15.60;79.80
53711;DHT22;39605;52.704;6.752;2023-05-03T11:18:05;15.70;80.90
53711;DHT22;39605;52.704;6.752;2023-05-03T11:20:31;15.80;80.50
53711;DHT22;39605;52.704;6.752;2023-05-03T11:22:58;15.90;82.00
53711;DHT22;39605;52.704;6.752;2023-05-03T11:25:27;15.70;77.50
53711;DHT22;39605;52.704;6.752;2023-05-03T11:27:53;15.90;80.10
53711;DHT22;39605;52.704;6.752;2023-05-03T11:30:19;15.60;76.00
53711;DHT22;39605;52.704;6.752;2023-05-03T11:32:45;15.80;78.20
53711;DHT22;39605;52.704;6.752;2023-05-03T11:35:12;15.70;79.30
53711;DHT22;39605;52.704;6.752;2023-05-03T11:37:38;15.90;81.50
53711;DHT22;39605;52.704;6.752;2023-05-03T11:40:06;16.10;77.00
53711;DHT22;39605;52.704;6.752;2023-05-03T11:42:33;16.20;79.80
53711;DHT22;39605;52.704;6.752;2023-05-03T11:44:59;16.40;78.90
53711;DHT22;39605;52.704;6.752;2023-05-03T11:47:26;16.10;74.30
53711;DHT22;39605;52.704;6.752;2023-05-03T11:49:55;16.20;77.70
53711;DHT22;39605;52.704;6.752;2023-05-03T11:52:23;16.00;77.00
53711;DHT22;39605;52.704;6.752;2023-05-03T11:54:50;16.20;79.40
53711;DHT22;39605;52.704;6.752;2023-05-03T11:57:16;16.40;77.40
53711;DHT22;39605;52.704;6.752;2023-05-03T11:59:42;16.40;75.80
53711;DHT22;39605;52.704;6.752;2023-05-03T12:02:11;16.20;74.40
53711;DHT22;39605;52.704;6.752;2023-05-03T12:04:39;16.30;75.30
53711;DHT22;39605;52.704;6.752;2023-05-03T12:07:06;16.30;76.10
53711;DHT22;39605;52.704;6.752;2023-05-03T12:09:33;16.20;73.50
53711;DHT22;39605;52.704;6.752;2023-05-03T12:12:00;16.50;76.90
53711;DHT22;39605;52.704;6.752;2023-05-03T12:14:27;16.40;75.10
53711;DHT22;39605;52.704;6.752;2023-05-03T12:16:53;16.70;78.40
53711;DHT22;39605;52.704;6.752;2023-05-03T12:19:29;16.70;75.90
53711;DHT22;39605;52.704;6.752;2023-05-03T12:21:55;16.90;77.10
53711;DHT22;39605;52.704;6.752;2023-05-03T12:24:22;17.10;75.80
53711;DHT22;39605;52.704;6.752;2023-05-03T12:26:49;17.10;73.80
53711;DHT22;39605;52.704;6.752;2023-05-03T12:29:14;17.20;71.30
53711;DHT22;39605;52.704;6.752;2023-05-03T12:31:41;17.00;71.90
53711;DHT22;39605;52.704;6.752;2023-05-03T12:34:07;16.90;72.70
53711;DHT22;39605;52.704;6.752;2023-05-03T12:36:34;16.90;72.60
53711;DHT22;39605;52.704;6.752;2023-05-03T12:39:00;17.00;73.50
53711;DHT22;39605;52.704;6.752;2023-05-03T12:41:26;16.90;71.30
53711;DHT22;39605;52.704;6.752;2023-05-03T12:43:56;17.10;72.50
53711;DHT22;39605;52.704;6.752;2023-05-03T12:46:23;17.30;73.60
53711;DHT22;39605;52.704;6.752;2023-05-03T12:48:50;17.20;72.00
53711;DHT22;39605;52.704;6.752;2023-05-03T12:51:16;16.80;70.00
53711;DHT22;39605;52.704;6.752;2023-05-03T12:53:42;16.50;69.80
